Time;durP1;ratioP1;P1;durP2;ratioP2;P2;SDS_P1;SDS_P2;PMS_P1;PMS_P2;Temp;Humidity;BMP_temperature;BMP_pressure;BME280_temperature;BME280_humidity;BME280_pressure;Samples;Min_cycle;Max_cycle;Signal;HPM_P1;HPM_P2
2021/06/20 00:00:16;;;;;;;16.75;15.00;;;;;;;22.40;100.00;95793.03;5016821;28;20080;-50
2021/06/20 00:02:46;;;;;;;16.52;14.15;;;;;;;22.19;100.00;95800.66;5020435;28;20072;-52
2021/06/20 00:05:18;;;;;;;16.65;14.95;;;;;;;22.04;100.00;95795.72;5022797;28;20068;-54
2021/06/20 00:07:49;;;;;;;16.38;14.77;;;;;;;22.24;100.00;95795.41;5021416;28;20077;-53
2021/06/20 00:10:20;;;;;;;17.55;15.13;;;;;;;22.11;100.00;95792.91;5025601;28;20100;-55
2021/06/20 00:12:49;;;;;;;16.88;15.05;;;;;;;22.42;100.00;95790.94;5019832;28;20101;-54
2021/06/20 00:15:19;;;;;;;17.85;15.35;;;;;;;22.14;100.00;95786.28;5017337;28;20064;-53
2021/06/20 00:17:49;;;;;;;18.23;15.52;;;;;;;22.06;100.00;95787.44;5017022;28;20077;-52
2021/06/20 00:20:21;;;;;;;17.25;14.70;;;;;;;22.16;100.00;95790.41;5023490;28;20068;-54
2021/06/20 00:22:50;;;;;;;16.58;14.25;;;;;;;22.53;100.00;95795.47;5019396;28;20069;-54
2021/06/20 00:25:19;;;;;;;16.75;14.95;;;;;;;22.74;100.00;95799.41;5015994;28;20081;-51
2021/06/20 00:27:48;;;;;;;15.27;13.77;;;;;;;22.63;100.00;95794.88;5025816;28;20077;-53
2021/06/20 00:30:19;;;;;;;16.13;14.55;;;;;;;22.27;100.00;95794.94;5011392;28;20172;-55
2021/06/20 00:32:48;;;;;;;19.27;14.65;;;;;;;22.22;100.00;95799.38;5016231;28;20076;-53
2021/06/20 00:35:17;;;;;;;15.80;14.18;;;;;;;21.87;100.00;95802.00;5015788;28;20068;-53
2021/06/20 00:37:49;;;;;;;18.30;16.50;;;;;;;21.94;100.00;95794.66;5020387;28;20069;-54
2021/06/20 00:40:19;;;;;;;18.13;16.40;;;;;;;22.18;100.00;95785.59;5015891;28;20096;-54
2021/06/20 00:42:47;;;;;;;21.67;17.15;;;;;;;22.52;100.00;95775.84;5022373;28;20085;-54
2021/06/20 00:45:18;;;;;;;19.98;17.98;;;;;;;22.37;100.00;95777.41;5020163;28;20061;-53
2021/06/20 00:47:49;;;;;;;23.38;17.58;;;;;;;22.76;100.00;95775.81;5019528;28;20068;-54
2021/06/20 00:50:19;;;;;;;19.88;17.88;;;;;;;22.90;100.00;95763.72;5020754;28;20073;-54
2021/06/20 00:52:49;;;;;;;;;;;;;;;22.87;100.00;95763.38;5013915;28;20457;-54
2021/06/20 00:55:17;;;;;;;19.15;17.15;;;;;;;22.90;100.00;95757.53;5020110;28;19959;-53
2021/06/20 00:57:46;;;;;;;19.42;16.73;;;;;;;22.79;100.00;95764.59;5018871;28;20088;-55
2021/06/20 01:00:15;;;;;;;18.33;16.48;;;;;;;22.72;100.00;95751.28;5022724;28;20064;-55
2021/06/20 01:02:46;;;;;;;18.25;16.40;;;;;;;22.59;100.00;95762.28;5013603;28;20125;-53
2021/06/20 01:05:15;;;;;;;19.00;17.02;;;;;;;22.65;100.00;95760.53;5021804;28;20068;-53
2021/06/20 01:07:44;;;;;;;19.80;17.90;;;;;;;22.65;100.00;95765.91;5014737;28;20617;-53
2021/06/20 01:10:15;;;;;;;24.20;18.50;;;;;;;22.63;100.00;95774.19;5016395;28;20088;-54
2021/06/20 01:12:43;;;;;;;;;;;;;;;22.03;100.00;95772.59;5021027;28;20521;-52
2021/06/20 01:15:13;;;;;;;19.00;16.95;;;;;;;21.54;100.00;95785.41;5015348;28;19968;-53
2021/06/20 01:17:43;;;;;;;20.88;17.52;;;;;;;21.26;100.00;95793.19;5020031;28;20077;-55
2021/06/20 01:20:15;;;;;;;20.20;18.20;;;;;;;21.82;100.00;95781.25;5017118;28;20088;-53
2021/06/20 01:22:47;;;;;;;18.65;16.90;;;;;;;21.85;100.00;95782.63;5019780;28;20058;-54
2021/06/20 01:25:17;;;;;;;18.65;16.75;;;;;;;21.90;100.00;95791.63;5016406;28;20077;-51
2021/06/20 01:27:50;;;;;;;19.05;16.70;;;;;;;21.98;100.00;95793.94;5021867;28;20095;-57
2021/06/20 01:30:21;;;;;;;18.25;16.27;;;;;;;21.98;100.00;95788.59;5018621;28;20582;-55
2021/06/20 01:32:51;;;;;;;18.50;16.52;;;;;;;22.32;100.00;95767.34;5019203;28;20095;-57
2021/06/20 01:35:20;;;;;;;17.83;16.13;;;;;;;21.86;100.00;95749.38;5019550;28;20090;-53
2021/06/20 01:37:50;;;;;;;18.70;16.67;;;;;;;21.78;100.00;95747.84;5016664;28;20111;-57
2021/06/20 01:40:19;;;;;;;18.13;16.38;;;;;;;21.99;100.00;95747.28;5016568;28;20070;-55
2021/06/20 01:42:48;;;;;;;18.83;16.35;;;;;;;22.02;100.00;95756.72;5021628;28;20477;-53
2021/06/20 01:45:18;;;;;;;19.00;16.95;;;;;;;21.54;100.00;95781.88;5020266;28;20073;-56
2021/06/20 01:47:47;;;;;;;17.50;15.70;;;;;;;21.38;100.00;95794.09;5020812;28;20083;-53
2021/06/20 01:50:17;;;;;;;16.25;14.60;;;;;;;20.83;100.00;95784.28;5019242;28;20057;-59
2021/06/20 01:52:46;;;;;;;18.73;15.93;;;;;;;21.31;100.00;95769.19;5022054;28;20076;-56
2021/06/20 01:55:17;;;;;;;18.77;15.77;;;;;;;21.05;100.00;95771.19;5021729;28;20084;-56
2021/06/20 01:57:46;;;;;;;20.95;16.33;;;;;;;21.40;100.00;95767.03;5022494;28;20085;-55
2021/06/20 02:00:17;;;;;;;20.33;18.23;;;;;;;21.46;100.00;95769.63;5021664;28;20068;-55
2021/06/20 02:02:45;;;;;;;19.60;16.42;;;;;;;21.46;100.00;95768.78;5013860;28;20058;-53
2021/06/20 02:05:14;;;;;;;19.15;17.25;;;;;;;21.35;100.00;95773.09;5019917;28;20693;-56
2021/06/20 02:07:45;;;;;;;17.92;16.00;;;;;;;21.47;100.00;95768.59;4999015;28;20065;-56
2021/06/20 02:10:14;;;;;;;17.95;16.15;;;;;;;21.18;100.00;95783.63;5020450;28;20072;-58
2021/06/20 02:12:45;;;;;;;19.50;17.50;;;;;;;21.35;100.00;95773.09;5020963;28;20091;-55
2021/06/20 02:15:16;;;;;;;18.92;17.00;;;;;;;21.46;100.00;95779.53;5015321;28;20114;-54
2021/06/20 02:17:47;;;;;;;19.77;17.73;;;;;;;21.23;100.00;95775.72;5017998;28;20061;-52
2021/06/20 02:20:16;;;;;;;;;;;;;;;21.27;100.00;95768.84;5015626;28;20543;-55
2021/06/20 02:22:46;;;;;;;20.00;17.90;;;;;;;21.56;100.00;95771.72;5016902;28;19959;-53
2021/06/20 02:25:15;;;;;;;21.00;18.20;;;;;;;21.43;100.00;95770.06;5017865;28;20084;-51
2021/06/20 02:27:48;;;;;;;21.40;19.20;;;;;;;21.51;100.00;95767.06;5015431;28;20077;-53
2021/06/20 02:30:18;;;;;;;21.00;18.95;;;;;;;21.26;100.00;95764.50;5018882;28;20072;-51
2021/06/20 02:32:47;;;;;;;21.90;18.45;;;;;;;20.96;100.00;95769.09;5017938;28;20065;-52
2021/06/20 02:35:16;;;;;;;19.15;17.08;;;;;;;21.03;100.00;95761.78;5021057;28;20065;-52
2021/06/20 02:37:46;;;;;;;20.97;18.67;;;;;;;21.51;100.00;95760.91;5016491;28;20073;-52
2021/06/20 02:40:15;;;;;;;21.83;17.20;;;;;;;21.43;100.00;95764.69;5018932;28;20080;-54
2021/06/20 02:42:46;;;;;;;20.08;16.40;;;;;;;21.35;100.00;95748.94;5019677;28;20580;-52
2021/06/20 02:45:16;;;;;;;20.75;17.77;;;;;;;20.90;100.00;95746.69;5020082;28;20136;-56
2021/06/20 02:47:46;;;;;;;21.10;18.90;;;;;;;20.98;100.00;95734.81;5014896;28;20074;-55
2021/06/20 02:50:16;;;;;;;21.98;19.67;;;;;;;20.88;100.00;95743.41;5020458;28;20073;-57
2021/06/20 02:52:45;;;;;;;21.42;19.30;;;;;;;21.24;100.00;95744.34;5018289;28;20084;-53
2021/06/20 02:55:14;;;;;;;21.75;19.55;;;;;;;21.35;100.00;95750.81;5019252;28;20076;-56
2021/06/20 02:57:43;;;;;;;21.55;19.40;;;;;;;20.96;100.00;95769.09;5022638;28;20080;-53
2021/06/20 03:00:15;;;;;;;21.48;18.45;;;;;;;20.66;100.00;95766.38;5018454;28;20081;-56
2021/06/20 03:02:49;;;;;;;21.52;17.50;;;;;;;20.79;100.00;95760.84;5018759;28;20072;-54
2021/06/20 03:05:18;;;;;;;20.42;18.45;;;;;;;21.06;100.00;95767.50;5013553;28;20080;-50
2021/06/20 03:07:47;;;;;;;20.40;18.38;;;;;;;21.18;100.00;95766.72;5020956;28;20087;-53
2021/06/20 03:10:15;;;;;;;20.75;18.65;;;;;;;21.52;100.00;95766.00;5019048;28;20551;-51
2021/06/20 03:12:44;;;;;;;20.90;18.80;;;;;;;20.89;100.00;95769.16;5021472;28;20474;-56
2021/06/20 03:15:14;;;;;;;21.33;18.35;;;;;;;20.85;100.00;95786.72;5013603;28;20076;-55
2021/06/20 03:17:44;;;;;;;22.30;17.85;;;;;;;20.92;100.00;95794.69;5017419;28;20115;-58
2021/06/20 03:20:13;;;;;;;21.35;19.25;;;;;;;21.16;100.00;95800.97;5016334;28;20069;-53
2021/06/20 03:22:42;;;;;;;21.67;19.57;;;;;;;20.98;100.00;95797.28;5019864;28;20550;-57
2021/06/20 03:25:11;;;;;;;21.05;18.75;;;;;;;20.87;100.00;95798.03;5016018;28;20081;-56
2021/06/20 03:27:39;;;;;;;21.27;19.10;;;;;;;20.98;100.00;95791.09;5016843;28;20297;-53
2021/06/20 03:30:09;;;;;;;20.52;18.52;;;;;;;20.91;100.00;95788.50;5013748;28;20080;-55
2021/06/20 03:32:39;;;;;;;21.40;19.20;;;;;;;21.04;100.00;95776.81;5019291;28;20171;-55
2021/06/20 03:35:08;;;;;;;22.90;19.10;;;;;;;21.01;100.00;95786.09;5018290;28;20080;-53
2021/06/20 03:37:37;;;;;;;21.73;18.97;;;;;;;21.19;100.00;95785.25;5023641;28;20081;-53
2021/06/20 03:40:06;;;;;;;22.23;19.85;;;;;;;21.35;100.00;95783.81;5021166;28;20084;-51
2021/06/20 03:42:35;;;;;;;20.52;18.33;;;;;;;21.78;100.00;95785.41;5023259;28;20080;-55
2021/06/20 03:45:07;;;;;;;21.73;19.52;;;;;;;21.47;100.00;95790.03;5022213;28;20497;-55
2021/06/20 03:47:36;;;;;;;22.02;19.67;;;;;;;21.43;100.00;95801.44;5021870;28;20076;-57
2021/06/20 03:50:08;;;;;;;23.23;20.15;;;;;;;21.87;100.00;95804.69;5021506;28;20258;-53
2021/06/20 03:52:37;;;;;;;20.58;18.55;;;;;;;21.40;100.00;95815.31;5022109;28;20068;-52
2021/06/20 03:55:07;;;;;;;20.38;17.65;;;;;;;21.10;100.00;95822.28;5022450;28;20077;-55
2021/06/20 03:57:36;;;;;;;19.08;17.08;;;;;;;21.27;100.00;95824.34;5020678;28;21312;-54
2021/06/20 04:00:07;;;;;;;18.73;16.88;;;;;;;21.08;100.00;95832.41;5020719;28;20581;-53
2021/06/20 04:02:36;;;;;;;20.67;18.48;;;;;;;21.14;100.00;95832.56;5015572;28;20061;-54
2021/06/20 04:05:07;;;;;;;22.88;20.67;;;;;;;21.32;100.00;95840.56;5016439;28;20065;-56
2021/06/20 04:07:36;;;;;;;20.13;18.23;;;;;;;21.45;100.00;95844.97;5018870;28;20064;-51
2021/06/20 04:10:05;;;;;;;19.50;17.60;;;;;;;21.43;100.00;95852.41;5022505;28;20495;-53
2021/06/20 04:12:33;;;;;;;20.13;18.23;;;;;;;20.83;100.00;95845.09;5017621;28;20069;-54
2021/06/20 04:15:02;;;;;;;19.38;17.42;;;;;;;21.13;100.00;95826.38;5020824;28;20076;-56
2021/06/20 04:17:33;;;;;;;21.10;18.48;;;;;;;21.80;100.00;95815.53;5020788;28;20073;-53
2021/06/20 04:20:02;;;;;;;20.05;18.17;;;;;;;22.39;100.00;95802.97;5021184;28;20065;-55
2021/06/20 04:22:32;;;;;;;19.08;17.25;;;;;;;22.44;100.00;95802.28;5017411;28;24465;-54
2021/06/20 04:25:00;;;;;;;19.40;17.48;;;;;;;22.86;100.00;95810.16;5023058;28;20077;-54
2021/06/20 04:27:29;;;;;;;19.73;17.67;;;;;;;22.44;100.00;95819.22;5020333;28;20073;-56
2021/06/20 04:29:57;;;;;;;19.35;17.45;;;;;;;23.33;100.00;95827.00;5022224;28;20061;-55
2021/06/20 04:32:25;;;;;;;19.10;17.27;;;;;;;23.50;100.00;95821.63;5018300;28;20072;-54
2021/06/20 04:34:54;;;;;;;18.05;16.20;;;;;;;23.65;100.00;95821.09;5019913;28;20073;-56
2021/06/20 04:37:22;;;;;;;18.05;16.25;;;;;;;24.19;100.00;95829.56;5019574;28;20081;-55
2021/06/20 04:39:52;;;;;;;17.83;16.10;;;;;;;24.26;100.00;95821.28;5022420;28;20339;-52
2021/06/20 04:42:22;;;;;;;17.75;16.02;;;;;;;25.29;100.00;95827.84;5018684;28;20463;-55
2021/06/20 04:44:50;;;;;;;18.38;16.52;;;;;;;25.50;100.00;95834.28;5020288;28;20068;-54
2021/06/20 04:47:24;;;;;;;17.63;15.93;;;;;;;25.53;100.00;95841.88;5018041;28;23435;-50
2021/06/20 04:49:53;;;;;;;17.10;15.50;;;;;;;26.02;100.00;95841.81;5023360;28;20289;-55
2021/06/20 04:52:21;;;;;;;16.88;15.13;;;;;;;26.77;100.00;95832.88;5021024;28;20073;-55
2021/06/20 04:54:52;;;;;;;17.80;16.10;;;;;;;25.77;100.00;95850.47;5024532;28;20090;-49
2021/06/20 04:57:20;;;;;;;;;;;;;;;25.10;100.00;95850.78;5020112;28;20084;-50
2021/06/20 04:59:49;;;;;;;17.55;15.85;;;;;;;24.21;100.00;95857.06;5018377;28;20039;-49
2021/06/20 05:02:18;;;;;;;16.75;15.25;;;;;;;24.52;100.00;95854.84;5018660;28;20080;-51
2021/06/20 05:04:46;;;;;;;17.92;16.17;;;;;;;24.25;100.00;95854.69;5016965;28;20065;-57
2021/06/20 05:07:15;;;;;;;18.25;16.25;;;;;;;24.12;100.00;95867.44;5020634;28;20577;-52
2021/06/20 05:09:44;;;;;;;18.83;16.95;;;;;;;24.37;100.00;95868.91;5021946;28;20077;-51
2021/06/20 05:12:15;;;;;;;18.40;16.57;;;;;;;25.19;100.00;95857.41;5021057;28;20081;-52
2021/06/20 05:14:45;;;;;;;18.42;16.67;;;;;;;24.84;100.00;95855.88;5017651;28;20494;-50
2021/06/20 05:17:15;;;;;;;20.55;18.13;;;;;;;25.87;100.00;95846.25;5019691;28;20088;-50
2021/06/20 05:19:44;;;;;;;18.73;16.83;;;;;;;26.88;97.95;95840.00;5018780;28;20069;-53
2021/06/20 05:22:18;;;;;;;18.52;16.65;;;;;;;25.72;100.00;95855.00;5019581;28;20742;-50
2021/06/20 05:24:46;;;;;;;18.43;16.60;;;;;;;26.85;100.00;95854.03;5020606;28;20080;-56
2021/06/20 05:27:16;;;;;;;19.08;17.27;;;;;;;26.86;100.00;95847.53;5020301;28;20483;-56
2021/06/20 05:29:45;;;;;;;18.73;16.92;;;;;;;25.84;100.00;95855.69;5016228;28;20072;-50
2021/06/20 05:32:13;;;;;;;19.73;17.92;;;;;;;26.52;100.00;95854.09;5015227;28;20077;-53
2021/06/20 05:34:42;;;;;;;18.95;17.23;;;;;;;26.34;100.00;95854.50;5014691;28;20068;-49
2021/06/20 05:37:10;;;;;;;19.25;17.35;;;;;;;26.71;100.00;95859.91;5024490;28;20092;-53
2021/06/20 05:39:38;;;;;;;19.20;17.33;;;;;;;27.13;100.00;95852.84;5015055;28;20069;-51
2021/06/20 05:42:07;;;;;;;19.20;17.40;;;;;;;26.96;100.00;95855.72;5018592;28;20587;-52
2021/06/20 05:44:37;;;;;;;19.98;17.98;;;;;;;27.72;93.84;95854.38;5017410;28;20513;-53
2021/06/20 05:47:06;;;;;;;19.38;17.58;;;;;;;27.27;96.49;95862.09;5016593;28;20064;-53
2021/06/20 05:49:34;;;;;;;19.13;17.33;;;;;;;27.76;93.90;95872.56;5014437;28;20072;-57
2021/06/20 05:52:03;;;;;;;18.58;16.75;;;;;;;26.84;100.00;95882.16;5022914;28;20075;-54
2021/06/20 05:54:32;;;;;;;19.05;17.05;;;;;;;26.47;100.00;95901.94;5016903;28;20073;-59
2021/06/20 05:57:00;;;;;;;17.85;16.20;;;;;;;26.40;100.00;95906.72;5017001;28;20100;-60
2021/06/20 05:59:29;;;;;;;17.65;15.73;;;;;;;26.07;100.00;95930.22;5014980;28;20057;-57
2021/06/20 06:01:59;;;;;;;20.10;15.77;;;;;;;25.68;100.00;95927.63;5013800;28;20062;-56
2021/06/20 06:04:28;;;;;;;17.73;15.88;;;;;;;25.99;100.00;95922.56;5018478;28;20080;-55
2021/06/20 06:06:56;;;;;;;17.17;15.43;;;;;;;26.37;100.00;95913.44;5017940;28;20088;-59
2021/06/20 06:09:25;;;;;;;19.50;16.55;;;;;;;26.07;100.00;95911.28;5019705;28;20077;-56
2021/06/20 06:11:53;;;;;;;17.95;16.15;;;;;;;26.16;100.00;95922.47;5013782;28;20088;-58
2021/06/20 06:14:21;;;;;;;18.27;16.40;;;;;;;25.84;100.00;95920.50;5014918;28;20061;-57
2021/06/20 06:16:50;;;;;;;18.45;16.58;;;;;;;26.14;100.00;95924.59;5017766;28;20069;-54
2021/06/20 06:19:20;;;;;;;18.08;16.40;;;;;;;25.71;100.00;95921.72;5019462;28;20509;-58
2021/06/20 06:21:48;;;;;;;18.50;16.70;;;;;;;25.64;100.00;95934.59;5019097;28;20081;-60
2021/06/20 06:24:17;;;;;;;19.20;17.17;;;;;;;25.23;100.00;95930.59;5017285;28;20072;-55
2021/06/20 06:26:45;;;;;;;18.45;16.73;;;;;;;25.61;100.00;95935.09;5013780;28;20061;-59
2021/06/20 06:29:14;;;;;;;19.20;17.10;;;;;;;25.24;100.00;95949.22;5014651;28;20069;-56
2021/06/20 06:31:43;;;;;;;23.50;17.02;;;;;;;25.14;100.00;95950.97;5013521;28;20073;-57
2021/06/20 06:34:11;;;;;;;18.60;16.70;;;;;;;24.76;100.00;95956.06;5020521;28;20081;-56
2021/06/20 06:36:41;;;;;;;19.52;16.65;;;;;;;24.77;100.00;95967.66;5017485;28;20370;-55
2021/06/20 06:39:09;;;;;;;18.52;16.48;;;;;;;24.58;100.00;95973.31;5019751;28;20068;-58
2021/06/20 06:41:38;;;;;;;20.20;16.25;;;;;;;24.31;100.00;95978.47;5018142;28;20073;-59
2021/06/20 06:44:06;;;;;;;18.50;16.63;;;;;;;24.39;100.00;95983.47;5014883;28;20072;-57
2021/06/20 06:46:34;;;;;;;19.23;16.42;;;;;;;24.42;100.00;95987.59;5018091;28;20056;-59
2021/06/20 06:49:03;;;;;;;19.40;17.27;;;;;;;24.45;100.00;95994.38;5018956;28;20083;-59
2021/06/20 06:51:31;;;;;;;18.02;16.13;;;;;;;24.56;100.00;95988.91;5017173;28;20489;-59
2021/06/20 06:54:01;;;;;;;18.38;15.68;;;;;;;24.44;100.00;95992.75;5017187;28;20061;-58
2021/06/20 06:56:30;;;;;;;20.30;15.57;;;;;;;24.47;100.00;95994.97;5017062;28;20068;-61
2021/06/20 06:58:59;;;;;;;20.00;15.77;;;;;;;24.26;100.00;95997.28;5017030;28;20611;-57
2021/06/20 07:01:27;;;;;;;18.50;15.55;;;;;;;24.61;100.00;95982.78;5018352;28;20551;-60
2021/06/20 07:03:56;;;;;;;17.10;15.15;;;;;;;24.80;100.00;95981.47;5021956;28;20077;-60
2021/06/20 07:06:25;;;;;;;17.50;14.63;;;;;;;24.67;100.00;95987.19;4997168;28;20069;-58
2021/06/20 07:08:53;;;;;;;17.40;14.77;;;;;;;25.14;100.00;95986.03;4997981;28;20060;-57
2021/06/20 07:11:24;;;;;;;17.00;14.27;;;;;;;25.01;100.00;95990.69;5001226;28;20061;-55
2021/06/20 07:13:52;;;;;;;16.77;14.70;;;;;;;25.17;100.00;95997.16;5017097;28;20750;-59
2021/06/20 07:16:20;;;;;;;16.58;14.85;;;;;;;24.92;100.00;96000.28;5018341;28;20065;-60
2021/06/20 07:18:49;;;;;;;18.63;13.73;;;;;;;25.03;100.00;96007.44;5018504;28;20092;-58
2021/06/20 07:21:18;;;;;;;15.88;13.57;;;;;;;25.06;100.00;96019.63;5019343;28;20069;-56
2021/06/20 07:24:29;;;;;;;18.60;13.80;;;;;;;24.92;100.00;96021.03;5014915;28;20107;-57
2021/06/20 07:26:58;;;;;;;18.63;14.65;;;;;;;24.91;100.00;96014.81;5019594;28;20095;-60
2021/06/20 07:29:27;;;;;;;18.10;14.60;;;;;;;24.94;100.00;96017.00;5015743;28;20062;-61
2021/06/20 07:31:55;;;;;;;17.23;14.43;;;;;;;25.02;100.00;96015.81;5012776;28;20073;-60
2021/06/20 07:34:24;;;;;;;17.52;13.65;;;;;;;24.73;100.00;96026.66;5017662;28;20474;-55
2021/06/20 07:36:52;;;;;;;19.92;13.63;;;;;;;24.76;100.00;96033.47;5020541;28;20069;-57
2021/06/20 07:39:20;;;;;;;16.35;13.05;;;;;;;24.94;100.00;96030.50;5017494;28;20084;-60
2021/06/20 07:41:49;;;;;;;15.57;13.55;;;;;;;24.89;100.00;96027.75;5014576;28;20069;-59
2021/06/20 07:44:19;;;;;;;19.17;14.07;;;;;;;25.02;100.00;96024.72;5017174;28;20275;-59
2021/06/20 07:46:47;;;;;;;14.95;13.30;;;;;;;24.97;100.00;96021.91;5018520;28;20568;-59
2021/06/20 07:49:16;;;;;;;19.67;13.52;;;;;;;25.25;100.00;96033.69;5016138;28;20084;-59
2021/06/20 07:51:46;;;;;;;19.63;13.32;;;;;;;25.49;100.00;96023.50;5022027;28;20084;-57
2021/06/20 07:54:14;;;;;;;19.35;12.60;;;;;;;25.69;100.00;96029.16;5021285;28;20076;-61
2021/06/20 07:56:43;;;;;;;21.70;12.65;;;;;;;25.96;100.00;96026.56;5017048;28;20079;-59
2021/06/20 07:59:11;;;;;;;18.77;12.35;;;;;;;25.73;100.00;96032.19;5015943;28;20066;-57
2021/06/20 08:01:42;;;;;;;23.27;12.30;;;;;;;25.84;100.00;96039.38;5015616;28;20080;-59
2021/06/20 08:04:10;;;;;;;20.70;11.40;;;;;;;25.87;100.00;96043.47;5019492;28;20092;-59
2021/06/20 08:06:39;;;;;;;18.60;10.90;;;;;;;26.35;100.00;96044.53;5015932;28;20457;-58
2021/06/20 08:09:07;;;;;;;19.30;12.00;;;;;;;26.16;100.00;96053.00;5019299;28;20073;-56
2021/06/20 08:11:36;;;;;;;16.23;10.32;;;;;;;26.13;100.00;96053.50;5015626;28;20061;-58
2021/06/20 08:14:05;;;;;;;19.13;10.48;;;;;;;26.03;100.00;96054.22;5015465;28;20053;-57
2021/06/20 08:16:33;;;;;;;19.73;11.37;;;;;;;26.26;100.00;96057.72;5013611;28;20613;-56
2021/06/20 08:19:04;;;;;;;17.80;10.43;;;;;;;26.19;100.00;96059.81;5020920;28;20081;-58
2021/06/20 08:21:32;;;;;;;14.90;10.20;;;;;;;26.49;100.00;96076.34;5014673;28;20069;-55
2021/06/20 08:24:00;;;;;;;16.25;10.43;;;;;;;26.25;100.00;96080.38;5021247;28;20255;-58
2021/06/20 08:26:29;;;;;;;22.27;10.90;;;;;;;26.31;100.00;96079.38;5019862;28;20084;-57
2021/06/20 08:28:57;;;;;;;21.95;10.40;;;;;;;26.67;100.00;96068.94;5019735;28;20069;-57
2021/06/20 08:31:26;;;;;;;18.17;10.27;;;;;;;26.74;100.00;96069.59;5018433;28;20077;-57
2021/06/20 08:33:54;;;;;;;19.10;10.80;;;;;;;27.03;100.00;96070.09;5023102;28;20529;-60
2021/06/20 08:36:24;;;;;;;19.80;9.93;;;;;;;26.82;100.00;96063.69;5002709;28;20064;-58
2021/06/20 08:38:52;;;;;;;23.90;10.15;;;;;;;27.03;97.98;96061.16;5024475;28;20064;-61
2021/06/20 08:41:22;;;;;;;19.02;10.13;;;;;;;27.93;92.37;96052.00;5018476;28;20072;-57
2021/06/20 08:43:55;;;;;;;26.08;10.23;;;;;;;28.05;86.96;96053.69;5024566;28;20638;-59
2021/06/20 08:46:24;;;;;;;17.00;9.25;;;;;;;27.58;92.09;96055.34;5020035;28;20092;-58
2021/06/20 08:48:53;;;;;;;20.33;9.35;;;;;;;28.53;85.15;96054.41;5022238;28;20612;-58
2021/06/20 08:51:21;;;;;;;16.92;9.13;;;;;;;28.42;85.99;96052.72;5021693;28;20088;-55
2021/06/20 08:53:51;;;;;;;21.83;9.80;;;;;;;27.80;90.36;96057.91;5017395;28;20073;-60
2021/06/20 08:56:20;;;;;;;21.02;8.50;;;;;;;27.66;85.36;96057.53;5020501;28;20724;-58
2021/06/20 08:58:48;;;;;;;20.45;7.85;;;;;;;28.44;76.26;96056.81;5002674;28;20073;-58
2021/06/20 09:01:17;;;;;;;20.92;8.50;;;;;;;28.60;80.46;96057.66;5020927;28;20642;-58
2021/06/20 09:03:46;;;;;;;21.33;8.20;;;;;;;28.10;81.14;96064.53;5021332;28;20080;-56
2021/06/20 09:06:17;;;;;;;19.13;7.60;;;;;;;28.50;73.75;96058.47;5021272;28;20095;-58
2021/06/20 09:08:47;;;;;;;17.92;7.70;;;;;;;28.34;77.38;96062.19;5018789;28;20073;-58
2021/06/20 09:11:28;;;;;;;17.92;7.43;;;;;;;28.72;74.86;96058.22;5020801;28;20702;-60
2021/06/20 09:14:06;;;;;;;18.40;8.65;;;;;;;28.96;74.93;96060.41;5019876;28;20069;-58
2021/06/20 09:16:35;;;;;;;24.42;8.50;;;;;;;28.45;77.86;96057.63;5018049;28;20476;-58
2021/06/20 09:19:04;;;;;;;18.38;8.52;;;;;;;28.81;73.71;96056.59;5023036;28;20717;-58
2021/06/20 09:21:33;;;;;;;19.75;8.23;;;;;;;28.52;73.65;96048.16;5022373;28;20123;-60
2021/06/20 09:24:01;;;;;;;19.48;8.13;;;;;;;29.18;71.76;96052.00;5018568;28;20815;-58
2021/06/20 09:26:39;;;;;;;21.35;8.80;;;;;;;29.54;68.76;96047.34;5023667;28;20076;-59
2021/06/20 09:29:10;;;;;;;21.85;8.70;;;;;;;29.23;68.58;96036.53;5017989;28;20069;-59
2021/06/20 09:31:46;;;;;;;20.20;8.18;;;;;;;29.25;72.70;96025.38;5021843;28;20065;-59
2021/06/20 09:34:15;;;;;;;21.13;8.45;;;;;;;29.96;66.50;96029.84;5020556;28;20084;-52
2021/06/20 09:36:45;;;;;;;19.17;7.83;;;;;;;29.85;66.38;96018.19;5023183;28;20103;-58
2021/06/20 09:39:21;;;;;;;25.98;8.60;;;;;;;30.45;60.34;96005.38;5015470;28;20100;-57
2021/06/20 09:41:58;;;;;;;26.02;7.95;;;;;;;30.72;60.24;96002.19;5020526;28;20065;-55
2021/06/20 09:44:37;;;;;;;21.15;7.90;;;;;;;30.26;58.61;95991.63;5019369;28;20650;-54
2021/06/20 09:47:06;;;;;;;19.40;6.97;;;;;;;31.11;54.19;95982.28;5016107;28;20070;-57
2021/06/20 09:49:39;;;;;;;24.55;7.80;;;;;;;30.45;56.72;95986.31;5019566;28;20250;-58
2021/06/20 09:52:08;;;;;;;18.30;6.88;;;;;;;30.78;55.25;95985.84;5025330;28;20112;-54
2021/06/20 09:54:54;;;;;;;18.77;7.38;;;;;;;31.10;52.62;95986.09;5019724;28;20063;-58
2021/06/20 09:57:24;;;;;;;21.17;7.82;;;;;;;31.68;53.00;95993.41;5018763;28;20127;-57
2021/06/20 09:59:56;;;;;;;27.05;7.78;;;;;;;31.95;51.00;95989.31;5015993;28;20140;-60
2021/06/20 10:02:26;;;;;;;21.58;7.97;;;;;;;31.80;51.99;95996.56;5021647;28;20500;-59
2021/06/20 10:04:55;;;;;;;22.58;7.72;;;;;;;32.33;49.20;96001.88;5019097;28;20053;-57
2021/06/20 10:07:27;;;;;;;22.63;6.85;;;;;;;31.98;47.67;95994.19;5020936;28;20076;-55
2021/06/20 10:09:57;;;;;;;22.17;6.57;;;;;;;30.58;50.39;95995.78;5019368;28;20092;-58
2021/06/20 10:12:27;;;;;;;21.70;6.10;;;;;;;31.73;50.57;95990.66;5015027;28;20104;-55
2021/06/20 10:14:57;;;;;;;19.63;5.93;;;;;;;32.33;45.28;95977.31;5018220;28;20069;-58
2021/06/20 10:17:29;;;;;;;21.50;6.05;;;;;;;32.71;47.02;95976.50;5016294;28;20706;-57
2021/06/20 10:20:00;;;;;;;25.10;6.65;;;;;;;32.32;46.33;95985.81;5016098;28;20061;-57
2021/06/20 10:22:36;;;;;;;18.70;6.20;;;;;;;32.98;46.42;95982.09;5017869;28;20081;-52
2021/06/20 10:25:07;;;;;;;20.33;6.07;;;;;;;32.22;46.93;95973.13;5020139;28;20081;-56
2021/06/20 10:27:41;;;;;;;23.73;6.18;;;;;;;32.67;46.94;95967.28;5018410;28;20514;-56
2021/06/20 10:30:11;;;;;;;16.20;5.30;;;;;;;32.23;45.55;95966.53;5017856;28;20072;-60
2021/06/20 10:32:41;;;;;;;22.17;6.20;;;;;;;32.31;46.03;95960.44;5016155;28;20064;-53
2021/06/20 10:35:14;;;;;;;22.75;6.20;;;;;;;32.97;45.71;95955.06;5017212;28;20065;-58
2021/06/20 10:37:44;;;;;;;25.58;6.28;;;;;;;32.72;44.61;95961.72;5018387;28;20065;-58
2021/06/20 10:40:21;;;;;;;22.40;6.40;;;;;;;32.97;45.28;95957.81;5018823;28;20286;-59
2021/06/20 10:42:52;;;;;;;21.80;6.07;;;;;;;32.83;44.48;95955.81;5020639;28;20084;-58
2021/06/20 10:45:28;;;;;;;25.00;6.63;;;;;;;33.72;43.87;95946.53;5018078;28;20478;-59
2021/06/20 10:47:58;;;;;;;21.33;5.90;;;;;;;33.94;42.73;95945.00;5013276;28;20064;-56
2021/06/20 10:50:37;;;;;;;19.02;5.85;;;;;;;33.87;41.87;95948.16;5019674;28;20474;-58
2021/06/20 10:53:06;;;;;;;20.55;5.88;;;;;;;33.01;42.12;95942.44;5015925;28;20071;-59
2021/06/20 10:55:43;;;;;;;24.50;5.78;;;;;;;32.66;42.40;95944.63;5021803;28;20083;-59
2021/06/20 10:58:21;;;;;;;20.25;5.53;;;;;;;32.37;42.55;95951.03;5018088;28;20481;-57
2021/06/20 11:00:51;;;;;;;21.60;5.67;;;;;;;32.18;46.04;95942.06;5021076;28;21313;-58
2021/06/20 11:03:24;;;;;;;22.45;6.03;;;;;;;31.74;46.27;95943.19;5021155;28;20075;-56
2021/06/20 11:05:55;;;;;;;17.45;5.60;;;;;;;32.99;43.06;95939.97;5018956;28;20068;-56
2021/06/20 11:08:28;;;;;;;20.45;6.25;;;;;;;33.22;43.23;95940.94;5017563;28;20104;-58
2021/06/20 11:11:10;;;;;;;19.77;6.47;;;;;;;33.59;43.90;95921.94;5017405;28;20075;-57
2021/06/20 11:13:42;;;;;;;24.27;7.05;;;;;;;33.32;44.55;95920.81;5017084;28;20065;-59
2021/06/20 11:16:13;;;;;;;25.38;6.18;;;;;;;33.75;40.16;95924.03;5022837;28;20710;-59
2021/06/20 11:18:42;;;;;;;20.33;6.05;;;;;;;33.76;40.99;95914.75;5021454;28;20471;-58
2021/06/20 11:21:11;;;;;;;20.52;6.05;;;;;;;33.62;42.70;95910.38;5021085;28;20053;-56
2021/06/20 11:23:42;;;;;;;20.92;6.40;;;;;;;33.16;42.26;95911.28;5017039;28;20072;-59
2021/06/20 11:26:10;;;;;;;21.25;6.60;;;;;;;32.39;43.99;95891.53;5019000;28;20069;-56